Time;durP1;ratioP1;P1;durP2;ratioP2;P2;SDS_P1;SDS_P2;PMS_P1;PMS_P2;Temp;Humidity;BMP_temperature;BMP_pressure;BME280_temperature;BME280_humidity;BME280_pressure;Samples;Min_cycle;Max_cycle;Signal;HPM_P1;HPM_P2
2022/03/17 00:01:54;;;;;;;86.73;59.40;;;5.00;99.90;;;;;;5051290;28;20469;-87
2022/03/17 00:04:22;;;;;;;83.27;59.63;;;5.00;99.90;;;;;;5051528;28;20916;-87
2022/03/17 00:06:48;;;;;;;86.75;58.85;;;4.90;99.90;;;;;;5050202;28;20477;-88
2022/03/17 00:09:14;;;;;;;90.70;62.60;;;4.80;99.90;;;;;;5051349;28;20376;-87
2022/03/17 00:11:41;;;;;;;83.80;58.05;;;4.80;99.90;;;;;;5052935;28;20399;-88
2022/03/17 00:14:07;;;;;;;87.00;60.03;;;4.80;99.90;;;;;;5057550;28;20384;-87
2022/03/17 00:16:34;;;;;;;89.80;60.33;;;4.70;99.90;;;;;;5050857;28;20903;-87
2022/03/17 00:19:03;;;;;;;87.05;59.25;;;4.80;99.90;;;;;;5051187;28;20762;-87
2022/03/17 00:21:28;;;;;;;87.95;58.47;;;4.70;99.90;;;;;;5052375;28;20416;-87
2022/03/17 00:23:54;;;;;;;90.15;59.88;;;4.70;99.90;;;;;;5050326;28;20476;-87
2022/03/17 00:26:20;;;;;;;88.20;58.97;;;4.70;99.90;;;;;;5051118;28;20403;-87
2022/03/17 00:28:45;;;;;;;87.40;59.03;;;4.70;99.90;;;;;;5052637;28;20400;-87
2022/03/17 00:31:11;;;;;;;91.30;59.72;;;4.60;99.90;;;;;;5051976;28;20383;-87
2022/03/17 00:33:36;;;;;;;90.55;61.50;;;4.50;99.90;;;;;;5050652;28;20384;-87
2022/03/17 00:36:02;;;;;;;98.67;64.70;;;4.50;99.90;;;;;;5049429;28;20380;-87
2022/03/17 00:38:28;;;;;;;99.87;64.77;;;4.50;99.90;;;;;;5050949;28;20472;-87
2022/03/17 00:40:53;;;;;;;95.17;64.87;;;4.50;99.90;;;;;;5049836;28;20404;-86
2022/03/17 00:43:24;;;;;;;97.85;64.53;;;4.40;99.90;;;;;;5050685;28;20411;-87
2022/03/17 00:45:50;;;;;;;100.00;64.97;;;4.40;99.90;;;;;;5049871;28;20418;-87
2022/03/17 00:48:15;;;;;;;106.05;67.70;;;4.50;99.90;;;;;;5050990;28;20387;-88
2022/03/17 00:50:41;;;;;;;96.93;65.50;;;4.40;99.90;;;;;;5052619;28;20943;-87
2022/03/17 00:53:07;;;;;;;98.07;65.57;;;4.40;99.90;;;;;;5053613;28;20826;-87
2022/03/17 00:55:32;;;;;;;109.23;68.67;;;4.40;99.90;;;;;;5051052;28;20461;-87
2022/03/17 00:57:58;;;;;;;110.72;70.50;;;4.40;99.90;;;;;;5051342;28;20380;-87
2022/03/17 01:00:24;;;;;;;108.90;69.40;;;4.30;99.90;;;;;;5051632;28;20451;-87
2022/03/17 01:02:53;;;;;;;108.20;69.47;;;4.30;99.90;;;;;;5051641;28;20434;-87
2022/03/17 01:05:19;;;;;;;106.47;68.55;;;4.30;99.90;;;;;;5052512;28;20407;-88
2022/03/17 01:07:45;;;;;;;109.00;69.32;;;4.40;99.90;;;;;;5051487;28;20376;-87
2022/03/17 01:10:15;;;;;;;107.30;70.45;;;4.30;99.90;;;;;;5051573;28;20384;-87
2022/03/17 01:12:43;;;;;;;112.95;72.60;;;4.30;99.90;;;;;;5034790;28;20454;-87
2022/03/17 01:15:10;;;;;;;111.90;71.90;;;4.30;99.90;;;;;;5050445;28;20388;-87
2022/03/17 01:17:35;;;;;;;114.40;72.37;;;4.20;99.90;;;;;;5054326;28;20400;-87
2022/03/17 01:20:02;;;;;;;117.57;74.03;;;4.40;99.90;;;;;;5054131;28;20384;-87
2022/03/17 01:22:27;;;;;;;122.20;75.97;;;4.30;99.90;;;;;;5054362;28;20386;-87
2022/03/17 01:24:53;;;;;;;116.83;74.80;;;4.20;99.90;;;;;;5050842;28;20399;-87
2022/03/17 01:27:20;;;;;;;121.33;75.53;;;4.10;99.90;;;;;;5050027;28;20467;-88
2022/03/17 01:29:53;;;;;;;111.65;71.68;;;4.10;99.90;;;;;;5050955;28;20387;-87
2022/03/17 01:32:21;;;;;;;112.72;73.57;;;4.10;99.90;;;;;;5051451;28;20388;-87
2022/03/17 01:34:47;;;;;;;111.07;71.10;;;4.20;99.90;;;;;;5051046;28;20388;-87
2022/03/17 01:37:13;;;;;;;115.43;73.37;;;4.20;99.90;;;;;;5052031;28;20494;-88
2022/03/17 01:39:39;;;;;;;107.78;69.15;;;4.10;99.90;;;;;;5052617;28;20419;-88
2022/03/17 01:42:08;;;;;;;116.60;74.25;;;4.10;99.90;;;;;;5049806;28;20431;-87
2022/03/17 01:44:34;;;;;;;118.45;74.85;;;4.00;99.90;;;;;;5051959;28;20465;-88
2022/03/17 01:49:45;;;;;;;124.53;76.95;;;4.00;99.90;;;;;;5052293;28;20460;-87
2022/03/17 01:52:11;;;;;;;118.85;74.03;;;4.00;99.90;;;;;;5049435;28;20391;-87
2022/03/17 01:54:37;;;;;;;125.65;76.57;;;4.00;99.90;;;;;;5051726;28;20900;-87
2022/03/17 01:57:05;;;;;;;118.72;76.30;;;3.90;99.90;;;;;;5049921;28;20434;-88
2022/03/17 01:59:32;;;;;;;124.18;76.40;;;3.90;99.90;;;;;;5052292;28;20411;-87
2022/03/17 02:01:58;;;;;;;132.98;80.90;;;4.00;99.90;;;;;;5049787;28;20400;-87
2022/03/17 02:04:24;;;;;;;123.05;77.78;;;4.00;99.90;;;;;;5051001;28;20770;-87
2022/03/17 02:06:53;;;;;;;129.35;79.78;;;4.10;99.90;;;;;;5050975;28;20383;-87
2022/03/17 02:09:19;;;;;;;127.78;80.18;;;4.10;99.90;;;;;;5050023;28;20434;-88
2022/03/17 02:14:34;;;;;;;136.27;82.53;;;4.10;99.90;;;;;;5051994;28;20399;-87
2022/03/17 02:17:00;;;;;;;130.85;79.97;;;4.20;99.90;;;;;;5051932;28;20387;-88
2022/03/17 02:19:26;;;;;;;130.68;81.03;;;4.00;99.90;;;;;;5051503;28;20479;-87
2022/03/17 02:21:51;;;;;;;137.93;84.07;;;4.10;99.90;;;;;;5050890;28;20427;-87
2022/03/17 02:27:03;;;;;;;132.80;81.30;;;4.10;99.90;;;;;;5052229;28;20418;-87
2022/03/17 02:29:30;;;;;;;132.82;84.28;;;4.10;99.90;;;;;;5049416;28;20414;-87
2022/03/17 02:31:56;;;;;;;136.73;85.10;;;4.10;99.90;;;;;;5050513;28;20490;-87
2022/03/17 02:34:22;;;;;;;135.65;85.30;;;4.20;99.90;;;;;;5051246;28;20384;-87
2022/03/17 02:36:49;;;;;;;132.38;85.65;;;4.20;99.90;;;;;;5053889;28;20383;-87
2022/03/17 02:39:16;;;;;;;137.52;87.95;;;4.40;99.90;;;;;;5051108;28;20476;-88
2022/03/17 02:41:42;;;;;;;133.38;84.05;;;4.30;99.90;;;;;;5050440;28;20988;-87
2022/03/17 02:44:09;;;;;;;131.75;83.97;;;4.20;99.90;;;;;;5053048;28;20490;-87
2022/03/17 02:46:35;;;;;;;129.52;85.07;;;4.30;99.90;;;;;;5050850;28;20419;-86
2022/03/17 02:49:01;;;;;;;129.90;84.95;;;4.40;99.90;;;;;;5050597;28;20489;-88
2022/03/17 02:51:26;;;;;;;132.60;87.40;;;4.40;99.90;;;;;;5049929;28;20379;-87
2022/03/17 02:53:52;;;;;;;128.47;85.17;;;4.50;99.90;;;;;;5050239;28;20387;-87
2022/03/17 02:56:17;;;;;;;128.52;84.40;;;4.50;99.90;;;;;;5050201;28;20394;-87
2022/03/17 02:58:43;;;;;;;129.45;83.90;;;4.50;99.90;;;;;;5052717;28;20383;-87
2022/03/17 03:01:09;;;;;;;127.50;84.45;;;4.40;99.90;;;;;;5051933;28;20496;-87
2022/03/17 03:03:35;;;;;;;126.18;84.13;;;4.40;99.90;;;;;;5049597;28;20380;-87
2022/03/17 03:06:01;;;;;;;121.05;81.32;;;4.40;99.90;;;;;;5051166;28;20395;-87
2022/03/17 03:08:27;;;;;;;125.97;84.13;;;4.40;99.90;;;;;;5053568;28;20486;-87
2022/03/17 03:10:53;;;;;;;124.72;81.55;;;4.40;99.90;;;;;;5054642;28;20878;-87
2022/03/17 03:13:19;;;;;;;116.90;78.47;;;4.30;99.90;;;;;;5054933;28;20408;-87
2022/03/17 03:15:45;;;;;;;127.57;83.03;;;4.40;99.90;;;;;;5053048;28;20388;-88
2022/03/17 03:18:11;;;;;;;121.95;83.47;;;4.50;99.90;;;;;;5052847;28;20907;-87
2022/03/17 03:20:37;;;;;;;118.78;80.65;;;4.50;99.90;;;;;;5054792;28;20883;-87
2022/03/17 03:23:04;;;;;;;117.87;80.30;;;4.40;99.90;;;;;;5056080;28;20384;-87
2022/03/17 03:25:30;;;;;;;113.90;78.28;;;4.30;99.90;;;;;;5054275;28;20895;-87
2022/03/17 03:27:56;;;;;;;120.13;83.18;;;4.30;99.90;;;;;;5055571;28;20427;-87
2022/03/17 03:30:22;;;;;;;122.47;83.03;;;4.20;99.90;;;;;;5052206;28;20394;-86
2022/03/17 03:32:48;;;;;;;123.05;81.93;;;4.20;99.90;;;;;;5056641;28;20457;-87
2022/03/17 03:37:58;;;;;;;121.53;81.95;;;4.20;99.90;;;;;;5054001;28;20524;-87
2022/03/17 03:40:25;;;;;;;120.22;80.43;;;4.10;99.90;;;;;;5052690;28;20380;-87
2022/03/17 03:42:50;;;;;;;115.47;78.23;;;4.20;99.90;;;;;;5052115;28;20994;-87
2022/03/17 03:45:16;;;;;;;121.93;81.50;;;4.20;99.90;;;;;;5054108;28;20483;-87
2022/03/17 03:47:42;;;;;;;120.97;82.57;;;4.10;99.90;;;;;;5053977;28;20484;-87
2022/03/17 03:50:09;;;;;;;121.50;82.75;;;4.20;99.90;;;;;;5055944;28;20542;-86
2022/03/17 03:52:34;;;;;;;118.28;80.38;;;4.00;99.90;;;;;;5056840;28;20384;-88
2022/03/17 03:55:00;;;;;;;113.20;80.60;;;4.10;99.90;;;;;;5054439;28;20394;-86
2022/03/17 03:57:26;;;;;;;112.55;78.25;;;4.00;99.90;;;;;;5055381;28;20498;-87
2022/03/17 03:59:52;;;;;;;123.15;84.43;;;3.90;99.90;;;;;;5056642;28;20388;-87
2022/03/17 04:02:18;;;;;;;123.43;85.30;;;3.90;99.90;;;;;;5055216;28;20938;-87
2022/03/17 04:04:44;;;;;;;125.07;85.28;;;3.80;99.90;;;;;;5057116;28;20916;-87
2022/03/17 04:07:11;;;;;;;127.10;85.40;;;3.80;99.90;;;;;;5054072;28;20471;-87
2022/03/17 04:09:41;;;;;;;126.13;86.23;;;3.70;99.90;;;;;;5036426;28;20387;-87
2022/03/17 04:12:10;;;;;;;126.47;87.10;;;3.80;99.90;;;;;;5053265;28;20391;-87
2022/03/17 04:14:36;;;;;;;121.00;82.07;;;3.80;99.90;;;;;;5053553;28;20407;-87
2022/03/17 04:17:02;;;;;;;131.30;83.72;;;3.80;99.90;;;;;;5055021;28;20463;-87
2022/03/17 04:19:28;;;;;;;122.28;84.10;;;3.70;99.90;;;;;;5054409;28;20383;-87
2022/03/17 04:21:54;;;;;;;117.53;81.27;;;3.70;99.90;;;;;;5053536;28;20386;-87
2022/03/17 04:24:20;;;;;;;110.78;77.75;;;3.70;99.90;;;;;;5052406;28;20391;-87
2022/03/17 04:26:47;;;;;;;114.32;79.72;;;3.70;99.90;;;;;;5051901;28;20438;-87
2022/03/17 04:29:13;;;;;;;115.23;80.37;;;3.70;99.90;;;;;;5051142;28;20427;-87
2022/03/17 04:31:41;;;;;;;111.50;79.47;;;3.70;99.90;;;;;;5053017;28;20398;-86
2022/03/17 04:34:08;;;;;;;118.60;83.80;;;3.70;99.90;;;;;;5052056;28;20380;-87
2022/03/17 04:36:35;;;;;;;115.03;83.22;;;3.70;99.90;;;;;;5053433;28;20396;-87
2022/03/17 04:39:03;;;;;;;130.27;92.67;;;3.60;99.90;;;;;;5052224;28;20478;-88
2022/03/17 04:41:28;;;;;;;120.20;87.85;;;3.60;99.90;;;;;;5032896;28;20393;-86
2022/03/17 04:43:54;;;;;;;119.90;89.63;;;3.80;99.90;;;;;;5044056;28;20797;-86
2022/03/17 04:46:20;;;;;;;115.22;87.70;;;3.80;99.90;;;;;;5051972;28;20399;-86
2022/03/17 04:48:46;;;;;;;115.37;87.50;;;4.00;99.90;;;;;;5051094;28;21000;-87
2022/03/17 04:51:12;;;;;;;109.13;85.17;;;4.00;99.90;;;;;;5051662;28;20392;-87
2022/03/17 04:53:38;;;;;;;107.37;84.00;;;4.20;99.90;;;;;;5052266;28;20789;-87
2022/03/17 04:56:09;;;;;;;106.77;83.33;;;4.30;99.90;;;;;;5050439;28;20396;-87
2022/03/17 04:58:36;;;;;;;109.28;84.45;;;4.30;99.90;;;;;;5036428;28;20399;-87
2022/03/17 05:01:04;;;;;;;102.17;82.63;;;4.40;99.90;;;;;;5052823;28;20384;-87
2022/03/17 05:03:31;;;;;;;103.63;82.20;;;4.40;99.90;;;;;;5049556;28;20473;-87
2022/03/17 05:05:57;;;;;;;100.50;78.43;;;4.40;99.90;;;;;;5050927;28;20439;-86
2022/03/17 05:08:23;;;;;;;97.13;78.40;;;4.40;99.90;;;;;;5050414;28;20420;-87
2022/03/17 05:10:52;;;;;;;101.72;79.28;;;4.50;99.90;;;;;;5050982;28;20420;-88
2022/03/17 05:13:19;;;;;;;95.32;76.57;;;4.60;99.90;;;;;;5050078;28;20797;-87
2022/03/17 05:15:46;;;;;;;95.80;76.53;;;4.70;99.90;;;;;;5049933;28;20423;-87
2022/03/17 05:18:12;;;;;;;93.03;75.20;;;4.70;99.90;;;;;;5051099;28;20392;-87
2022/03/17 05:20:41;;;;;;;88.05;73.47;;;4.80;99.90;;;;;;5053155;28;22423;-88
2022/03/17 05:23:14;;;;;;;93.65;76.30;;;4.70;99.90;;;;;;5053473;28;20885;-87
2022/03/17 05:25:40;;;;;;;91.28;74.45;;;4.80;99.90;;;;;;5054123;28;20461;-87
2022/03/17 05:28:08;;;;;;;89.85;73.78;;;4.60;99.90;;;;;;5049874;28;20741;-88
2022/03/17 05:30:37;;;;;;;89.53;74.07;;;4.70;99.90;;;;;;5049501;28;20399;-87
2022/03/17 05:33:03;;;;;;;88.35;73.03;;;4.70;99.90;;;;;;5029750;28;20390;-88
2022/03/17 05:35:29;;;;;;;93.15;76.45;;;4.80;99.90;;;;;;5034058;28;20423;-87
2022/03/17 05:37:56;;;;;;;87.13;72.68;;;4.80;99.90;;;;;;5050816;28;20396;-87
2022/03/17 05:40:23;;;;;;;87.55;72.65;;;4.80;99.90;;;;;;5051369;28;20394;-87
2022/03/17 05:42:57;;;;;;;86.22;72.82;;;4.80;99.90;;;;;;5049730;28;20518;-87
2022/03/17 05:45:29;;;;;;;88.97;73.32;;;4.80;99.90;;;;;;5032669;28;20422;-87
2022/03/17 05:47:59;;;;;;;90.15;73.93;;;4.70;99.90;;;;;;5051083;28;20407;-86
2022/03/17 05:50:27;;;;;;;90.70;73.18;;;4.80;99.90;;;;;;5051222;28;20398;-86
2022/03/17 05:52:53;;;;;;;91.35;74.13;;;4.90;99.90;;;;;;5050134;28;20414;-87
2022/03/17 05:55:21;;;;;;;86.10;70.93;;;5.00;99.90;;;;;;5053022;28;20896;-88
2022/03/17 05:57:49;;;;;;;87.93;72.47;;;4.90;99.90;;;;;;5051288;28;20388;-87
2022/03/17 06:00:19;;;;;;;85.63;71.43;;;5.00;99.90;;;;;;5051260;28;20465;-86
2022/03/17 06:02:45;;;;;;;86.28;70.05;;;5.00;99.90;;;;;;5047215;28;20403;-86
2022/03/17 06:05:12;;;;;;;85.10;71.63;;;5.00;99.90;;;;;;5050961;28;20400;-87
2022/03/17 06:07:43;;;;;;;85.70;71.20;;;5.10;99.90;;;;;;5051008;28;20773;-87
2022/03/17 06:10:13;;;;;;;87.25;71.63;;;5.10;99.90;;;;;;5050966;28;20399;-87
2022/03/17 06:12:39;;;;;;;86.20;71.70;;;5.20;99.90;;;;;;5030575;28;20543;-87
2022/03/17 06:15:07;;;;;;;85.05;72.97;;;5.30;99.90;;;;;;5050414;28;20873;-88
2022/03/17 06:17:50;;;;;;;91.75;73.25;;;5.20;99.90;;;;;;5050262;28;20399;-87
2022/03/17 06:20:21;;;;;;;81.07;69.15;;;5.30;99.90;;;;;;5050645;28;20391;-87
2022/03/17 06:22:49;;;;;;;85.65;69.88;;;5.40;99.90;;;;;;5050546;28;20873;-87
2022/03/17 06:25:17;;;;;;;82.90;69.55;;;5.40;99.90;;;;;;5050954;28;20403;-88
2022/03/17 06:27:44;;;;;;;85.60;71.53;;;5.50;99.90;;;;;;5031397;28;20381;-87
2022/03/17 06:30:17;;;;;;;83.80;69.25;;;5.60;99.90;;;;;;5044361;28;20502;-87
2022/03/17 06:32:43;;;;;;;84.00;70.85;;;5.60;99.90;;;;;;5049985;28;20541;-88
2022/03/17 06:35:14;;;;;;;81.32;69.57;;;5.70;99.90;;;;;;5050241;28;20392;-86
2022/03/17 06:37:39;;;;;;;80.80;69.63;;;5.70;99.90;;;;;;5051496;28;20383;-87
2022/03/17 06:40:09;;;;;;;83.75;70.93;;;5.80;99.90;;;;;;5051930;28;20410;-88
2022/03/17 06:42:34;;;;;;;83.50;70.25;;;5.90;99.90;;;;;;5062289;28;20387;-87
2022/03/17 06:45:01;;;;;;;82.17;68.87;;;6.00;99.90;;;;;;5055597;28;20433;-88
2022/03/17 06:47:26;;;;;;;80.27;69.57;;;6.10;99.90;;;;;;5053332;28;20388;-87
2022/03/17 06:49:52;;;;;;;79.90;68.63;;;6.20;99.90;;;;;;5053328;28;20824;-87
2022/03/17 06:52:18;;;;;;;81.57;69.43;;;6.20;99.90;;;;;;5055323;28;20388;-88
2022/03/17 06:54:45;;;;;;;82.22;69.78;;;6.40;99.90;;;;;;5054014;28;20441;-87
2022/03/17 06:57:15;;;;;;;81.32;68.18;;;6.40;99.90;;;;;;5052808;28;20411;-88
2022/03/17 06:59:40;;;;;;;81.93;69.35;;;6.50;99.90;;;;;;5054280;28;20794;-87
2022/03/17 07:02:06;;;;;;;78.27;68.37;;;6.50;99.90;;;;;;5053027;28;20965;-87
2022/03/17 07:04:32;;;;;;;79.03;66.45;;;6.60;99.90;;;;;;5054743;28;20479;-88
2022/03/17 07:06:57;;;;;;;81.17;69.10;;;6.70;99.90;;;;;;5051888;28;20498;-87
2022/03/17 07:09:23;;;;;;;81.80;69.10;;;6.70;99.90;;;;;;5052911;28;20830;-88
2022/03/17 07:11:49;;;;;;;80.07;67.53;;;6.80;99.90;;;;;;5053784;28;20858;-88
2022/03/17 07:14:14;;;;;;;79.80;67.75;;;6.80;99.90;;;;;;5052701;28;20983;-86
2022/03/17 07:16:40;;;;;;;80.37;67.37;;;6.90;99.90;;;;;;5052607;28;20416;-87
2022/03/17 07:19:07;;;;;;;74.77;65.20;;;7.00;99.90;;;;;;5052728;28;20422;-87
2022/03/17 07:21:33;;;;;;;78.45;66.93;;;7.10;99.90;;;;;;5052946;28;20394;-88
2022/03/17 07:23:59;;;;;;;80.75;68.95;;;7.10;99.90;;;;;;5052946;28;20478;-89
2022/03/17 07:26:26;;;;;;;75.40;66.80;;;7.20;99.90;;;;;;5051943;28;20500;-88
2022/03/17 07:28:53;;;;;;;79.55;66.80;;;7.20;99.90;;;;;;5052829;28;20391;-86
2022/03/17 07:31:19;;;;;;;78.47;67.20;;;7.30;99.90;;;;;;5051847;28;20415;-89
2022/03/17 07:33:45;;;;;;;78.68;67.05;;;7.30;99.90;;;;;;5052387;28;20384;-88
2022/03/17 07:36:11;;;;;;;76.85;65.88;;;7.40;99.90;;;;;;5051411;28;20730;-88
2022/03/17 07:38:36;;;;;;;76.43;65.47;;;7.40;99.90;;;;;;5047801;28;20438;-89
2022/03/17 07:41:02;;;;;;;76.33;66.67;;;7.70;99.90;;;;;;5061347;28;20370;-87
2022/03/17 07:43:28;;;;;;;76.03;66.63;;;7.60;99.90;;;;;;5046765;28;20481;-88
2022/03/17 07:45:53;;;;;;;81.38;66.38;;;7.70;99.90;;;;;;5031612;28;20417;-88
2022/03/17 07:48:20;;;;;;;76.70;66.10;;;7.70;99.90;;;;;;5042773;28;21008;-87
2022/03/17 07:50:46;;;;;;;77.03;66.90;;;7.80;99.90;;;;;;5051707;28;20499;-86
2022/03/17 07:53:11;;;;;;;74.83;65.97;;;7.90;99.90;;;;;;5050992;28;20503;-88
2022/03/17 07:55:37;;;;;;;76.03;64.10;;;8.00;99.90;;;;;;5052252;28;20388;-88
2022/03/17 07:58:04;;;;;;;72.57;64.50;;;8.00;99.90;;;;;;5050148;28;20387;-88
2022/03/17 08:00:30;;;;;;;74.65;65.93;;;8.00;99.90;;;;;;5049874;28;20397;-87
2022/03/17 08:02:57;;;;;;;77.40;66.97;;;8.10;99.90;;;;;;5045588;28;20373;-88
2022/03/17 08:05:23;;;;;;;76.15;66.22;;;8.10;99.90;;;;;;5040605;28;20849;-87
2022/03/17 08:07:49;;;;;;;76.65;64.78;;;8.20;99.90;;;;;;5041174;28;20424;-88
2022/03/17 08:10:15;;;;;;;74.63;65.60;;;8.20;99.90;;;;;;5039603;28;20374;-88
2022/03/17 08:12:41;;;;;;;75.80;65.72;;;8.20;99.90;;;;;;5049137;28;20482;-89
2022/03/17 08:15:07;;;;;;;74.93;65.32;;;8.20;99.90;;;;;;5050977;28;20443;-88
2022/03/17 08:17:34;;;;;;;77.45;65.88;;;8.20;99.90;;;;;;5052608;28;20376;-87
2022/03/17 08:20:05;;;;;;;72.45;63.75;;;8.30;99.90;;;;;;5051339;28;20738;-89
2022/03/17 08:22:31;;;;;;;75.80;66.00;;;8.30;99.90;;;;;;5051570;28;20465;-87
2022/03/17 08:24:57;;;;;;;73.07;63.83;;;8.40;99.90;;;;;;5050946;28;20400;-87
2022/03/17 08:27:22;;;;;;;72.77;63.50;;;8.40;99.90;;;;;;5052028;28;20402;-88
2022/03/17 08:29:48;;;;;;;77.17;64.33;;;8.40;99.90;;;;;;5051267;28;20380;-87
2022/03/17 08:32:14;;;;;;;71.63;63.75;;;8.50;99.90;;;;;;5051087;28;20912;-89
2022/03/17 08:34:40;;;;;;;73.72;64.03;;;8.50;99.90;;;;;;5050041;28;20791;-88
2022/03/17 08:37:05;;;;;;;73.45;64.15;;;8.60;99.90;;;;;;5052246;28;20380;-87
2022/03/17 08:39:34;;;;;;;71.27;62.57;;;8.60;99.90;;;;;;5051874;28;20466;-88
2022/03/17 08:42:00;;;;;;;70.10;61.53;;;8.50;99.90;;;;;;5051354;28;20375;-88
2022/03/17 08:44:25;;;;;;;74.43;62.53;;;8.70;99.90;;;;;;5051370;28;20408;-87
2022/03/17 08:49:35;;;;;;;71.32;61.60;;;8.60;99.90;;;;;;5053120;28;20449;-88
2022/03/17 08:52:04;;;;;;;70.00;61.78;;;8.70;99.90;;;;;;5051753;28;20418;-89
2022/03/17 08:54:34;;;;;;;72.32;63.50;;;8.80;99.90;;;;;;5052298;28;20376;-87
2022/03/17 08:57:01;;;;;;;73.43;62.33;;;8.90;99.90;;;;;;5043406;28;20412;-88
2022/03/17 08:59:31;;;;;;;70.43;62.03;;;9.00;99.90;;;;;;5039026;28;20378;-87
2022/03/17 09:02:01;;;;;;;69.75;60.67;;;9.00;99.90;;;;;;5039525;28;20871;-87
2022/03/17 09:04:28;;;;;;;75.22;62.60;;;9.20;99.90;;;;;;5035112;28;20949;-88
2022/03/17 09:06:59;;;;;;;67.75;60.25;;;9.30;99.90;;;;;;5029904;28;20393;-89
2022/03/17 09:09:26;;;;;;;71.57;59.73;;;9.40;99.90;;;;;;5031345;28;20385;-89
2022/03/17 09:11:51;;;;;;;69.18;59.50;;;9.60;99.90;;;;;;5030825;28;20385;-88
2022/03/17 09:14:21;;;;;;;66.90;58.63;;;9.70;99.90;;;;;;5030829;28;20503;-88
2022/03/17 09:16:49;;;;;;;73.15;58.88;;;9.70;99.90;;;;;;5031034;28;20828;-88
2022/03/17 09:19:16;;;;;;;75.30;60.13;;;9.80;99.90;;;;;;5032514;28;20421;-88
2022/03/17 09:21:41;;;;;;;69.57;59.00;;;9.80;99.90;;;;;;5046241;28;20944;-88
2022/03/17 09:24:07;;;;;;;66.85;59.47;;;9.90;99.90;;;;;;5050609;28;20476;-86
2022/03/17 09:26:42;;;;;;;66.88;58.95;;;9.90;99.90;;;;;;5050183;28;20380;-87
2022/03/17 09:29:16;;;;;;;70.80;58.33;;;9.90;99.90;;;;;;5050552;28;20469;-85
2022/03/17 09:31:42;;;;;;;66.60;57.17;;;9.90;99.90;;;;;;5059733;28;20479;-86
2022/03/17 09:34:09;;;;;;;65.78;57.60;;;10.00;99.90;;;;;;5050175;28;20384;-90
2022/03/17 09:36:35;;;;;;;65.68;57.72;;;9.90;99.90;;;;;;5049642;28;20474;-86
2022/03/17 09:41:45;;;;;;;68.20;57.95;;;9.80;99.90;;;;;;5043699;28;20405;-87
2022/03/17 09:44:10;;;;;;;69.13;58.75;;;9.80;99.90;;;;;;5049230;28;20941;-86
2022/03/17 09:46:41;;;;;;;65.70;58.40;;;9.90;99.90;;;;;;5044733;28;20395;-87
2022/03/17 09:49:07;;;;;;;68.35;58.33;;;9.90;99.90;;;;;;5031226;28;20373;-87
2022/03/17 09:51:34;;;;;;;67.82;57.00;;;9.80;99.90;;;;;;5037650;28;20889;-88
2022/03/17 09:54:00;;;;;;;65.07;56.53;;;10.00;99.90;;;;;;5049273;28;20395;-87
2022/03/17 09:56:30;;;;;;;66.30;57.90;;;9.90;99.90;;;;;;5050011;28;20400;-88
2022/03/17 09:58:58;;;;;;;64.90;57.80;;;10.00;99.90;;;;;;5048560;28;20799;-87
2022/03/17 10:01:28;;;;;;;171.43;67.50;;;9.90;99.90;;;;;;5049262;28;20383;-87
2022/03/17 10:03:58;;;;;;;110.10;61.78;;;10.00;99.90;;;;;;5049055;28;20380;-87
2022/03/17 10:06:24;;;;;;;73.88;57.92;;;10.10;99.90;;;;;;5048685;28;20414;-86
2022/03/17 10:08:50;;;;;;;76.28;58.15;;;10.60;99.90;;;;;;5048833;28;20372;-86
2022/03/17 10:11:31;;;;;;;67.97;57.10;;;10.50;99.90;;;;;;5049742;28;20384;-87
2022/03/17 10:13:59;;;;;;;63.88;55.53;;;10.40;99.90;;;;;;5049552;28;20449;-85
2022/03/17 10:16:26;;;;;;;66.50;55.97;;;10.70;99.90;;;;;;5049022;28;20485;-87
2022/03/17 10:19:00;;;;;;;61.97;55.28;;;10.60;99.90;;;;;;5056971;28;20469;-87
2022/03/17 10:21:28;;;;;;;66.20;57.60;;;10.50;99.90;;;;;;5054313;28;20536;-90
2022/03/17 10:23:59;;;;;;;62.13;55.30;;;11.00;99.90;;;;;;5057298;28;20375;-87
2022/03/17 10:26:41;;;;;;;69.10;56.60;;;10.40;99.90;;;;;;5055141;28;20481;-88
2022/03/17 10:29:27;;;;;;;61.75;54.70;;;10.40;99.90;;;;;;5053408;28;20533;-86
2022/03/17 10:31:56;;;;;;;63.25;55.63;;;10.20;99.90;;;;;;5056336;28;20499;-87
2022/03/17 10:34:23;;;;;;;62.53;55.83;;;10.90;99.90;;;;;;5055808;28;20401;-87
2022/03/17 10:36:50;;;;;;;83.65;56.53;;;;;;;;;;5056451;28;20383;-86
2022/03/17 10:39:17;;;;;;;65.25;56.53;;;10.70;99.90;;;;;;5055388;28;20383;-87
2022/03/17 10:41:45;;;;;;;63.40;55.17;;;10.80;99.90;;;;;;5048428;28;20432;-88
2022/03/17 10:44:15;;;;;;;61.33;54.53;;;10.70;99.90;;;;;;5056751;28;20379;-89
2022/03/17 10:46:55;;;;;;;62.30;55.22;;;10.80;99.90;;;;;;5055837;28;20757;-86
2022/03/17 10:49:21;;;;;;;62.25;55.45;;;10.90;99.90;;;;;;5057514;28;20380;-86
2022/03/17 10:51:53;;;;;;;62.83;55.47;;;10.90;99.90;;;;;;5053414;28;20493;-87
2022/03/17 10:54:19;;;;;;;61.47;54.80;;;10.90;99.90;;;;;;5054555;28;20417;-87
2022/03/17 10:57:04;;;;;;;66.00;55.33;;;11.00;99.90;;;;;;5054927;28;20367;-87
2022/03/17 10:59:43;;;;;;;60.83;54.17;;;11.00;99.90;;;;;;5057543;28;20749;-87
2022/03/17 11:02:11;;;;;;;62.63;55.67;;;11.10;99.90;;;;;;5055819;28;20407;-89
2022/03/17 11:04:39;;;;;;;63.38;55.47;;;11.20;99.90;;;;;;5057686;28;20775;-86
2022/03/17 11:07:10;;;;;;;60.78;54.17;;;11.40;99.90;;;;;;5056153;28;20380;-88
2022/03/17 11:09:39;;;;;;;60.47;53.97;;;11.60;99.90;;;;;;5056768;28;20383;-88
2022/03/17 11:12:11;;;;;;;60.63;54.03;;;11.90;99.90;;;;;;5056816;28;20387;-87
2022/03/17 11:14:50;;;;;;;60.23;53.77;;;12.00;99.90;;;;;;5056273;28;20372;-86
2022/03/17 11:17:31;;;;;;;66.22;54.28;;;12.20;99.90;;;;;;5051812;28;20403;-88
2022/03/17 11:20:08;;;;;;;59.83;53.42;;;12.10;99.90;;;;;;5037142;28;20383;-87
2022/03/17 11:22:34;;;;;;;62.63;53.08;;;12.30;99.90;;;;;;5055295;28;20391;-88
2022/03/17 11:25:25;;;;;;;58.53;51.85;;;12.10;99.90;;;;;;5054620;28;20920;-87
2022/03/17 11:28:00;;;;;;;62.53;52.38;;;12.20;99.90;;;;;;5054758;28;20805;-87
2022/03/17 11:30:46;;;;;;;63.65;52.13;;;12.40;99.90;;;;;;5051540;28;20408;-88
2022/03/17 11:33:44;;;;;;;58.08;51.75;;;12.60;99.90;;;;;;5035453;28;20392;-85
2022/03/17 11:36:10;;;;;;;58.17;51.97;;;12.70;99.90;;;;;;5051301;28;20475;-86
2022/03/17 11:38:43;;;;;;;58.13;51.80;;;12.80;99.90;;;;;;5051603;28;20478;-87
2022/03/17 11:41:27;;;;;;;56.42;50.40;;;;;;;;;;5042724;28;20412;-86
2022/03/17 11:43:52;;;;;;;56.78;49.65;;;13.10;99.90;;;;;;5051026;28;20434;-87
2022/03/17 11:47:14;;;;;;;58.63;52.33;;;13.20;99.90;;;;;;5052180;28;20403;-88
2022/03/17 11:50:31;;;;;;;56.67;50.40;;;13.40;99.90;;;;;;5051662;28;20443;-88
2022/03/17 11:53:13;;;;;;;65.60;51.53;;;13.30;99.90;;;;;;5050951;28;20395;-89
2022/03/17 11:55:45;;;;;;;58.95;50.97;;;13.40;99.90;;;;;;5051783;28;20375;-88
2022/03/17 11:58:30;;;;;;;62.50;51.47;;;13.10;99.90;;;;;;5050810;28;20384;-87
2022/03/17 12:01:22;;;;;;;55.90;49.85;;;12.80;99.90;;;;;;5053704;28;20515;-88
2022/03/17 12:03:58;;;;;;;63.08;52.30;;;12.60;99.90;;;;;;5051246;28;20400;-89
2022/03/17 12:06:36;;;;;;;57.95;50.80;;;12.60;99.90;;;;;;5033046;28;20905;-89
2022/03/17 12:09:04;;;;;;;61.03;52.63;;;12.60;99.90;;;;;;5048297;28;20897;-88
2022/03/17 12:11:37;;;;;;;57.33;51.28;;;12.70;99.90;;;;;;5035652;28;20396;-88
2022/03/17 12:14:18;;;;;;;57.33;51.20;;;12.70;99.90;;;;;;5050211;28;20403;-89
2022/03/17 12:16:51;;;;;;;59.28;53.08;;;12.70;99.90;;;;;;5035167;28;20393;-88
2022/03/17 12:19:32;;;;;;;59.22;52.80;;;12.60;99.90;;;;;;5040134;28;20394;-89
2022/03/17 12:21:57;;;;;;;72.80;53.50;;;12.30;99.90;;;;;;5061579;28;20384;-88
2022/03/17 12:24:52;;;;;;;58.10;51.93;;;12.20;99.90;;;;;;5064330;28;20386;-88
2022/03/17 12:27:28;;;;;;;59.83;52.28;;;12.20;99.90;;;;;;5086890;28;20389;-88
2022/03/17 12:30:28;;;;;;;69.22;53.70;;;12.20;99.90;;;;;;5085521;28;20370;-89
2022/03/17 12:33:01;;;;;;;57.67;50.78;;;12.20;99.90;;;;;;5064995;28;20816;-88
2022/03/17 12:35:34;;;;;;;59.35;52.95;;;12.20;99.90;;;;;;5051683;28;20404;-88
2022/03/17 12:38:03;;;;;;;57.50;51.17;;;12.30;99.90;;;;;;5054073;28;20441;-89
2022/03/17 12:40:46;;;;;;;59.80;51.45;;;12.40;99.90;;;;;;5054765;28;20404;-89
2022/03/17 12:43:13;;;;;;;57.10;50.53;;;12.70;99.90;;;;;;5054476;28;20375;-89
2022/03/17 12:45:41;;;;;;;56.05;50.10;;;12.70;99.90;;;;;;5061318;28;20482;-89
2022/03/17 12:48:13;;;;;;;56.50;50.50;;;12.70;99.90;;;;;;5061253;28;20376;-88
2022/03/17 12:50:39;;;;;;;58.53;52.17;;;12.90;99.90;;;;;;5043743;28;20400;-88
2022/03/17 12:53:08;;;;;;;58.60;51.10;;;13.10;99.90;;;;;;5047917;28;20380;-88
2022/03/17 12:55:35;;;;;;;56.47;50.05;;;12.90;99.90;;;;;;5066209;28;20392;-89